sensor_id;sensor_type;location;lat;lon;timestamp;P1;durP1;ratioP1;P2;durP2;ratioP2
71148;SDS011;59072;42.144;25.200;2023-04-03T00:01:23;6.53;;;3.47;;
71148;SDS011;59072;42.144;25.200;2023-04-03T00:03:49;5.57;;;2.78;;
71148;SDS011;59072;42.144;25.200;2023-04-03T00:06:15;3.83;;;2.25;;
71148;SDS011;59072;42.144;25.200;2023-04-03T00:08:40;6.47;;;3.15;;
71148;SDS011;59072;42.144;25.200;2023-04-03T00:11:06;7.25;;;3.95;;
71148;SDS011;59072;42.144;25.200;2023-04-03T00:13:32;13.20;;;5.22;;
71148;SDS011;59072;42.144;25.200;2023-04-03T00:15:58;18.65;;;9.63;;
71148;SDS011;59072;42.144;25.200;2023-04-03T00:18:23;19.52;;;10.07;;
71148;SDS011;59072;42.144;25.200;2023-04-03T00:20:49;15.95;;;8.20;;
71148;SDS011;59072;42.144;25.200;2023-04-03T00:23:14;17.80;;;8.88;;
71148;SDS011;59072;42.144;25.200;2023-04-03T00:25:40;13.75;;;6.93;;
71148;SDS011;59072;42.144;25.200;2023-04-03T00:28:06;10.95;;;5.60;;
71148;SDS011;59072;42.144;25.200;2023-04-03T00:30:32;9.75;;;5.13;;
71148;SDS011;59072;42.144;25.200;2023-04-03T00:32:57;8.75;;;4.97;;
71148;SDS011;59072;42.144;25.200;2023-04-03T00:35:23;9.00;;;4.32;;
71148;SDS011;59072;42.144;25.200;2023-04-03T00:37:52;8.02;;;3.88;;
71148;SDS011;59072;42.144;25.200;2023-04-03T00:40:19;8.93;;;4.03;;
71148;SDS011;59072;42.144;25.200;2023-04-03T00:42:46;6.32;;;3.38;;
71148;SDS011;59072;42.144;25.200;2023-04-03T00:47:57;8.90;;;4.03;;
71148;SDS011;59072;42.144;25.200;2023-04-03T00:50:25;11.48;;;4.68;;
71148;SDS011;59072;42.144;25.200;2023-04-03T00:52:51;12.15;;;6.57;;
71148;SDS011;59072;42.144;25.200;2023-04-03T00:55:17;13.32;;;6.15;;
71148;SDS011;59072;42.144;25.200;2023-04-03T00:57:43;16.00;;;6.35;;
71148;SDS011;59072;42.144;25.200;2023-04-03T01:00:12;12.02;;;6.53;;
71148;SDS011;59072;42.144;25.200;2023-04-03T01:02:41;12.25;;;6.20;;
71148;SDS011;59072;42.144;25.200;2023-04-03T01:05:07;12.00;;;6.38;;
71148;SDS011;59072;42.144;25.200;2023-04-03T01:07:34;18.15;;;10.13;;
71148;SDS011;59072;42.144;25.200;2023-04-03T01:10:02;14.75;;;6.43;;
71148;SDS011;59072;42.144;25.200;2023-04-03T01:12:35;9.43;;;5.63;;
71148;SDS011;59072;42.144;25.200;2023-04-03T01:17:33;13.30;;;6.13;;
71148;SDS011;59072;42.144;25.200;2023-04-03T01:25:35;9.73;;;5.10;;
71148;SDS011;59072;42.144;25.200;2023-04-03T01:28:02;10.00;;;4.78;;
71148;SDS011;59072;42.144;25.200;2023-04-03T01:30:30;6.82;;;3.63;;
71148;SDS011;59072;42.144;25.200;2023-04-03T01:32:57;5.60;;;2.90;;
71148;SDS011;59072;42.144;25.200;2023-04-03T01:35:23;7.10;;;3.10;;
71148;SDS011;59072;42.144;25.200;2023-04-03T01:37:48;5.68;;;2.80;;
71148;SDS011;59072;42.144;25.200;2023-04-03T01:40:14;4.55;;;2.70;;
71148;SDS011;59072;42.144;25.200;2023-04-03T01:42:39;6.63;;;3.17;;
71148;SDS011;59072;42.144;25.200;2023-04-03T01:45:05;5.70;;;2.90;;
71148;SDS011;59072;42.144;25.200;2023-04-03T01:47:31;5.28;;;2.88;;
71148;SDS011;59072;42.144;25.200;2023-04-03T01:49:56;6.22;;;2.95;;
71148;SDS011;59072;42.144;25.200;2023-04-03T01:52:21;4.93;;;2.70;;
71148;SDS011;59072;42.144;25.200;2023-04-03T01:54:47;7.13;;;2.90;;
71148;SDS011;59072;42.144;25.200;2023-04-03T01:57:12;5.38;;;2.80;;
71148;SDS011;59072;42.144;25.200;2023-04-03T01:59:40;5.70;;;3.22;;
71148;SDS011;59072;42.144;25.200;2023-04-03T02:02:05;5.75;;;2.72;;
71148;SDS011;59072;42.144;25.200;2023-04-03T02:04:31;5.10;;;3.08;;
71148;SDS011;59072;42.144;25.200;2023-04-03T02:06:56;6.15;;;2.90;;
71148;SDS011;59072;42.144;25.200;2023-04-03T02:09:21;7.32;;;2.92;;
71148;SDS011;59072;42.144;25.200;2023-04-03T02:11:47;5.05;;;2.78;;
71148;SDS011;59072;42.144;25.200;2023-04-03T02:14:12;5.32;;;2.90;;
71148;SDS011;59072;42.144;25.200;2023-04-03T02:16:38;7.82;;;2.83;;
71148;SDS011;59072;42.144;25.200;2023-04-03T02:19:03;6.80;;;2.85;;
71148;SDS011;59072;42.144;25.200;2023-04-03T02:21:29;5.47;;;2.78;;
71148;SDS011;59072;42.144;25.200;2023-04-03T02:23:54;5.97;;;3.25;;
71148;SDS011;59072;42.144;25.200;2023-04-03T02:26:20;5.50;;;2.72;;
71148;SDS011;59072;42.144;25.200;2023-04-03T02:28:46;7.15;;;3.17;;
71148;SDS011;59072;42.144;25.200;2023-04-03T02:31:11;6.57;;;3.08;;
71148;SDS011;59072;42.144;25.200;2023-04-03T02:33:37;6.68;;;3.53;;
71148;SDS011;59072;42.144;25.200;2023-04-03T02:36:06;7.22;;;3.28;;
71148;SDS011;59072;42.144;25.200;2023-04-03T02:38:32;9.25;;;3.55;;
71148;SDS011;59072;42.144;25.200;2023-04-03T02:41:05;5.10;;;3.22;;
71148;SDS011;59072;42.144;25.200;2023-04-03T02:43:32;7.13;;;3.20;;
71148;SDS011;59072;42.144;25.200;2023-04-03T02:45:58;5.82;;;3.10;;
71148;SDS011;59072;42.144;25.200;2023-04-03T02:48:23;6.18;;;3.20;;
71148;SDS011;59072;42.144;25.200;2023-04-03T02:50:49;5.00;;;2.75;;
71148;SDS011;59072;42.144;25.200;2023-04-03T02:53:15;6.40;;;3.72;;
71148;SDS011;59072;42.144;25.200;2023-04-03T02:55:40;8.93;;;4.57;;
71148;SDS011;59072;42.144;25.200;2023-04-03T02:58:06;6.35;;;3.40;;
71148;SDS011;59072;42.144;25.200;2023-04-03T03:00:32;7.15;;;3.25;;
71148;SDS011;59072;42.144;25.200;2023-04-03T03:02:57;7.70;;;2.80;;
71148;SDS011;59072;42.144;25.200;2023-04-03T03:05:24;11.27;;;5.20;;
71148;SDS011;59072;42.144;25.200;2023-04-03T03:07:49;45.20;;;17.90;;
71148;SDS011;59072;42.144;25.200;2023-04-03T03:10:15;55.17;;;22.70;;
71148;SDS011;59072;42.144;25.200;2023-04-03T03:12:40;17.17;;;7.53;;
71148;SDS011;59072;42.144;25.200;2023-04-03T03:15:06;11.30;;;5.40;;
71148;SDS011;59072;42.144;25.200;2023-04-03T03:17:32;8.10;;;4.22;;
71148;SDS011;59072;42.144;25.200;2023-04-03T03:19:57;5.90;;;3.25;;
71148;SDS011;59072;42.144;25.200;2023-04-03T03:22:23;8.00;;;3.38;;
71148;SDS011;59072;42.144;25.200;2023-04-03T03:24:48;8.80;;;5.00;;
71148;SDS011;59072;42.144;25.200;2023-04-03T03:27:14;7.93;;;3.50;;
71148;SDS011;59072;42.144;25.200;2023-04-03T03:29:41;7.78;;;3.85;;
71148;SDS011;59072;42.144;25.200;2023-04-03T03:32:07;6.35;;;3.58;;
71148;SDS011;59072;42.144;25.200;2023-04-03T03:34:32;9.13;;;3.80;;
71148;SDS011;59072;42.144;25.200;2023-04-03T03:36:58;113.32;;;36.67;;
71148;SDS011;59072;42.144;25.200;2023-04-03T03:39:23;185.60;;;55.35;;
71148;SDS011;59072;42.144;25.200;2023-04-03T03:41:49;63.70;;;23.92;;
71148;SDS011;59072;42.144;25.200;2023-04-03T03:44:15;33.33;;;14.45;;
71148;SDS011;59072;42.144;25.200;2023-04-03T03:46:40;9.32;;;4.70;;
71148;SDS011;59072;42.144;25.200;2023-04-03T03:49:06;115.88;;;52.53;;
71148;SDS011;59072;42.144;25.200;2023-04-03T03:51:31;95.35;;;48.25;;
71148;SDS011;59072;42.144;25.200;2023-04-03T03:53:56;21.77;;;13.38;;
71148;SDS011;59072;42.144;25.200;2023-04-03T03:56:22;15.40;;;7.03;;
71148;SDS011;59072;42.144;25.200;2023-04-03T03:58:47;20.50;;;8.60;;
71148;SDS011;59072;42.144;25.200;2023-04-03T04:01:14;9.63;;;5.70;;
71148;SDS011;59072;42.144;25.200;2023-04-03T04:03:40;16.45;;;7.53;;
71148;SDS011;59072;42.144;25.200;2023-04-03T04:06:06;17.75;;;8.73;;
71148;SDS011;59072;42.144;25.200;2023-04-03T04:08:31;16.17;;;8.95;;
71148;SDS011;59072;42.144;25.200;2023-04-03T04:10:57;41.60;;;24.98;;
71148;SDS011;59072;42.144;25.200;2023-04-03T04:13:22;55.17;;;27.02;;
71148;SDS011;59072;42.144;25.200;2023-04-03T04:15:48;38.22;;;19.08;;
71148;SDS011;59072;42.144;25.200;2023-04-03T04:18:13;40.25;;;19.42;;
71148;SDS011;59072;42.144;25.200;2023-04-03T04:20:39;31.95;;;16.20;;
71148;SDS011;59072;42.144;25.200;2023-04-03T04:23:05;27.42;;;14.68;;
71148;SDS011;59072;42.144;25.200;2023-04-03T04:25:30;27.90;;;14.18;;
71148;SDS011;59072;42.144;25.200;2023-04-03T04:27:56;22.70;;;11.38;;
71148;SDS011;59072;42.144;25.200;2023-04-03T04:30:21;25.30;;;22.80;;
71148;SDS011;59072;42.144;25.200;2023-04-03T04:32:46;14.93;;;10.85;;
71148;SDS011;59072;42.144;25.200;2023-04-03T04:35:12;11.05;;;8.07;;
71148;SDS011;59072;42.144;25.200;2023-04-03T04:37:37;12.65;;;7.03;;
71148;SDS011;59072;42.144;25.200;2023-04-03T04:40:03;12.48;;;7.93;;
71148;SDS011;59072;42.144;25.200;2023-04-03T04:42:28;12.65;;;7.93;;
71148;SDS011;59072;42.144;25.200;2023-04-03T04:44:54;12.30;;;7.70;;
71148;SDS011;59072;42.144;25.200;2023-04-03T04:47:19;12.68;;;6.70;;
71148;SDS011;59072;42.144;25.200;2023-04-03T04:49:45;11.20;;;6.45;;
71148;SDS011;59072;42.144;25.200;2023-04-03T04:52:12;13.15;;;6.60;;
71148;SDS011;59072;42.144;25.200;2023-04-03T04:54:38;9.80;;;6.32;;
71148;SDS011;59072;42.144;25.200;2023-04-03T04:57:03;15.57;;;7.10;;
71148;SDS011;59072;42.144;25.200;2023-04-03T04:59:29;13.00;;;6.68;;
71148;SDS011;59072;42.144;25.200;2023-04-03T05:01:54;17.15;;;7.97;;
71148;SDS011;59072;42.144;25.200;2023-04-03T05:04:20;20.00;;;12.25;;
71148;SDS011;59072;42.144;25.200;2023-04-03T05:06:45;13.05;;;8.45;;
71148;SDS011;59072;42.144;25.200;2023-04-03T05:09:11;12.10;;;7.40;;
71148;SDS011;59072;42.144;25.200;2023-04-03T05:11:37;10.13;;;5.80;;
71148;SDS011;59072;42.144;25.200;2023-04-03T05:14:02;9.73;;;6.28;;
71148;SDS011;59072;42.144;25.200;2023-04-03T05:16:30;9.73;;;6.50;;
71148;SDS011;59072;42.144;25.200;2023-04-03T05:18:56;13.13;;;6.20;;
71148;SDS011;59072;42.144;25.200;2023-04-03T05:21:21;14.27;;;8.30;;
71148;SDS011;59072;42.144;25.200;2023-04-03T05:23:48;18.05;;;11.02;;
71148;SDS011;59072;42.144;25.200;2023-04-03T05:26:13;22.88;;;13.90;;
71148;SDS011;59072;42.144;25.200;2023-04-03T05:28:39;29.55;;;16.48;;
71148;SDS011;59072;42.144;25.200;2023-04-03T05:31:04;29.90;;;16.63;;
71148;SDS011;59072;42.144;25.200;2023-04-03T05:33:30;18.73;;;11.63;;
71148;SDS011;59072;42.144;25.200;2023-04-03T05:35:55;20.55;;;11.73;;
71148;SDS011;59072;42.144;25.200;2023-04-03T05:38:21;20.20;;;11.45;;
71148;SDS011;59072;42.144;25.200;2023-04-03T05:40:46;11.15;;;6.53;;
71148;SDS011;59072;42.144;25.200;2023-04-03T05:43:12;10.85;;;7.05;;
71148;SDS011;59072;42.144;25.200;2023-04-03T05:45:37;10.40;;;7.95;;
71148;SDS011;59072;42.144;25.200;2023-04-03T05:48:03;14.32;;;7.72;;
71148;SDS011;59072;42.144;25.200;2023-04-03T05:50:28;9.75;;;5.65;;
71148;SDS011;59072;42.144;25.200;2023-04-03T05:52:55;7.95;;;4.63;;
71148;SDS011;59072;42.144;25.200;2023-04-03T05:55:23;6.45;;;4.07;;
71148;SDS011;59072;42.144;25.200;2023-04-03T05:57:48;11.00;;;5.72;;
71148;SDS011;59072;42.144;25.200;2023-04-03T06:00:15;9.27;;;5.97;;
71148;SDS011;59072;42.144;25.200;2023-04-03T06:02:41;13.00;;;7.70;;
71148;SDS011;59072;42.144;25.200;2023-04-03T06:05:07;18.35;;;9.13;;
71148;SDS011;59072;42.144;25.200;2023-04-03T06:07:34;12.18;;;7.57;;
71148;SDS011;59072;42.144;25.200;2023-04-03T06:10:00;13.15;;;8.15;;
71148;SDS011;59072;42.144;25.200;2023-04-03T06:12:26;13.68;;;8.55;;
71148;SDS011;59072;42.144;25.200;2023-04-03T06:14:53;13.87;;;8.40;;
71148;SDS011;59072;42.144;25.200;2023-04-03T06:17:19;13.75;;;9.05;;
71148;SDS011;59072;42.144;25.200;2023-04-03T06:19:45;13.73;;;9.05;;
71148;SDS011;59072;42.144;25.200;2023-04-03T06:22:10;15.52;;;10.02;;
71148;SDS011;59072;42.144;25.200;2023-04-03T06:24:37;12.90;;;9.07;;
71148;SDS011;59072;42.144;25.200;2023-04-03T06:27:03;15.38;;;9.40;;
71148;SDS011;59072;42.144;25.200;2023-04-03T06:29:29;16.30;;;9.32;;
71148;SDS011;59072;42.144;25.200;2023-04-03T06:31:55;16.02;;;10.98;;
71148;SDS011;59072;42.144;25.200;2023-04-03T06:34:21;19.25;;;14.18;;
71148;SDS011;59072;42.144;25.200;2023-04-03T06:36:46;18.02;;;14.27;;
71148;SDS011;59072;42.144;25.200;2023-04-03T06:39:15;23.95;;;16.80;;
71148;SDS011;59072;42.144;25.200;2023-04-03T06:41:46;23.27;;;16.83;;
71148;SDS011;59072;42.144;25.200;2023-04-03T06:44:11;23.63;;;16.60;;
71148;SDS011;59072;42.144;25.200;2023-04-03T06:46:40;18.63;;;14.25;;
71148;SDS011;59072;42.144;25.200;2023-04-03T06:49:06;19.88;;;14.80;;
71148;SDS011;59072;42.144;25.200;2023-04-03T06:54:00;18.80;;;13.70;;
71148;SDS011;59072;42.144;25.200;2023-04-03T06:56:26;20.77;;;13.23;;
71148;SDS011;59072;42.144;25.200;2023-04-03T06:58:52;17.48;;;12.65;;
71148;SDS011;59072;42.144;25.200;2023-04-03T07:01:23;19.63;;;13.50;;
71148;SDS011;59072;42.144;25.200;2023-04-03T07:03:51;20.10;;;13.52;;
71148;SDS011;59072;42.144;25.200;2023-04-03T07:06:16;18.15;;;12.55;;
71148;SDS011;59072;42.144;25.200;2023-04-03T07:08:43;20.05;;;11.93;;
71148;SDS011;59072;42.144;25.200;2023-04-03T07:11:09;19.55;;;14.63;;
71148;SDS011;59072;42.144;25.200;2023-04-03T07:13:36;20.50;;;14.77;;
71148;SDS011;59072;42.144;25.200;2023-04-03T07:16:02;18.58;;;14.65;;
71148;SDS011;59072;42.144;25.200;2023-04-03T07:18:29;21.88;;;14.60;;
71148;SDS011;59072;42.144;25.200;2023-04-03T07:20:55;17.70;;;12.68;;
71148;SDS011;59072;42.144;25.200;2023-04-03T07:23:21;14.93;;;10.52;;
71148;SDS011;59072;42.144;25.200;2023-04-03T07:25:49;17.58;;;10.18;;
71148;SDS011;59072;42.144;25.200;2023-04-03T07:28:16;8.90;;;5.87;;
71148;SDS011;59072;42.144;25.200;2023-04-03T07:30:46;10.95;;;5.93;;
71148;SDS011;59072;42.144;25.200;2023-04-03T07:33:14;9.30;;;6.40;;
71148;SDS011;59072;42.144;25.200;2023-04-03T07:35:41;8.40;;;4.70;;
71148;SDS011;59072;42.144;25.200;2023-04-03T07:38:07;10.90;;;5.57;;
71148;SDS011;59072;42.144;25.200;2023-04-03T07:40:33;7.72;;;4.90;;
71148;SDS011;59072;42.144;25.200;2023-04-03T07:42:59;10.20;;;5.63;;
71148;SDS011;59072;42.144;25.200;2023-04-03T07:45:24;12.82;;;6.30;;
71148;SDS011;59072;42.144;25.200;2023-04-03T07:47:50;36.47;;;17.50;;
71148;SDS011;59072;42.144;25.200;2023-04-03T07:50:16;14.02;;;6.88;;
71148;SDS011;59072;42.144;25.200;2023-04-03T07:52:42;10.07;;;4.93;;
71148;SDS011;59072;42.144;25.200;2023-04-03T07:55:08;12.35;;;7.25;;
71148;SDS011;59072;42.144;25.200;2023-04-03T07:57:33;7.88;;;5.03;;
71148;SDS011;59072;42.144;25.200;2023-04-03T07:59:59;8.95;;;5.05;;
71148;SDS011;59072;42.144;25.200;2023-04-03T08:02:24;21.58;;;11.98;;
71148;SDS011;59072;42.144;25.200;2023-04-03T08:04:50;14.52;;;5.60;;
71148;SDS011;59072;42.144;25.200;2023-04-03T08:07:16;9.38;;;4.53;;
71148;SDS011;59072;42.144;25.200;2023-04-03T08:09:41;9.30;;;3.90;;
71148;SDS011;59072;42.144;25.200;2023-04-03T08:12:07;7.63;;;3.58;;
71148;SDS011;59072;42.144;25.200;2023-04-03T08:14:32;12.52;;;6.22;;
71148;SDS011;59072;42.144;25.200;2023-04-03T08:16:59;8.93;;;4.20;;
71148;SDS011;59072;42.144;25.200;2023-04-03T08:19:25;6.03;;;3.40;;
71148;SDS011;59072;42.144;25.200;2023-04-03T08:21:51;6.97;;;3.13;;
71148;SDS011;59072;42.144;25.200;2023-04-03T08:24:17;5.65;;;3.15;;
71148;SDS011;59072;42.144;25.200;2023-04-03T08:26:42;6.32;;;2.92;;
71148;SDS011;59072;42.144;25.200;2023-04-03T08:29:07;4.25;;;2.60;;
71148;SDS011;59072;42.144;25.200;2023-04-03T08:31:33;5.78;;;3.42;;
71148;SDS011;59072;42.144;25.200;2023-04-03T08:33:58;6.53;;;3.00;;
71148;SDS011;59072;42.144;25.200;2023-04-03T08:36:25;5.00;;;2.58;;
71148;SDS011;59072;42.144;25.200;2023-04-03T08:38:52;5.20;;;3.15;;
71148;SDS011;59072;42.144;25.200;2023-04-03T08:41:24;5.03;;;2.72;;
71148;SDS011;59072;42.144;25.200;2023-04-03T08:44:07;4.88;;;2.95;;
71148;SDS011;59072;42.144;25.200;2023-04-03T08:47:11;5.07;;;2.80;;
71148;SDS011;59072;42.144;25.200;2023-04-03T08:49:47;5.80;;;3.20;;
71148;SDS011;59072;42.144;25.200;2023-04-03T08:55:19;6.47;;;3.50;;
71148;SDS011;59072;42.144;25.200;2023-04-03T08:57:48;8.90;;;4.20;;
71148;SDS011;59072;42.144;25.200;2023-04-03T09:00:23;9.63;;;4.38;;
71148;SDS011;59072;42.144;25.200;2023-04-03T09:02:51;9.13;;;5.07;;
71148;SDS011;59072;42.144;25.200;2023-04-03T09:05:19;9.02;;;4.43;;
71148;SDS011;59072;42.144;25.200;2023-04-03T09:10:44;8.00;;;4.40;;
71148;SDS011;59072;42.144;25.200;2023-04-03T09:15:45;17.65;;;9.55;;
71148;SDS011;59072;42.144;25.200;2023-04-03T09:18:15;10.43;;;4.85;;
71148;SDS011;59072;42.144;25.200;2023-04-03T09:26:24;7.18;;;4.30;;
71148;SDS011;59072;42.144;25.200;2023-04-03T09:28:54;7.40;;;4.30;;
71148;SDS011;59072;42.144;25.200;2023-04-03T09:31:25;10.25;;;5.25;;
71148;SDS011;59072;42.144;25.200;2023-04-03T09:34:15;12.05;;;6.53;;
71148;SDS011;59072;42.144;25.200;2023-04-03T09:36:51;12.40;;;6.22;;
71148;SDS011;59072;42.144;25.200;2023-04-03T09:39:19;10.88;;;5.70;;
71148;SDS011;59072;42.144;25.200;2023-04-03T09:41:57;11.07;;;5.43;;
71148;SDS011;59072;42.144;25.200;2023-04-03T09:46:58;6.32;;;3.10;;
71148;SDS011;59072;42.144;25.200;2023-04-03T09:49:24;6.32;;;2.70;;
71148;SDS011;59072;42.144;25.200;2023-04-03T09:51:49;5.82;;;2.50;;
71148;SDS011;59072;42.144;25.200;2023-04-03T09:57:13;9.35;;;4.90;;
71148;SDS011;59072;42.144;25.200;2023-04-03T09:59:58;10.55;;;4.97;;
71148;SDS011;59072;42.144;25.200;2023-04-03T10:05:04;67.28;;;36.22;;
71148;SDS011;59072;42.144;25.200;2023-04-03T10:07:49;12.65;;;6.68;;
71148;SDS011;59072;42.144;25.200;2023-04-03T10:10:17;37.63;;;19.08;;
71148;SDS011;59072;42.144;25.200;2023-04-03T10:12:45;8.15;;;4.60;;
71148;SDS011;59072;42.144;25.200;2023-04-03T10:15:14;9.73;;;4.30;;
71148;SDS011;59072;42.144;25.200;2023-04-03T10:18:05;8.65;;;3.70;;
71148;SDS011;59072;42.144;25.200;2023-04-03T10:20:43;6.43;;;3.45;;
71148;SDS011;59072;42.144;25.200;2023-04-03T10:28:52;10.52;;;3.92;;
71148;SDS011;59072;42.144;25.200;2023-04-03T10:34:33;11.07;;;4.30;;
71148;SDS011;59072;42.144;25.200;2023-04-03T10:42:14;28.98;;;11.38;;
71148;SDS011;59072;42.144;25.200;2023-04-03T10:45:20;44.65;;;16.60;;
71148;SDS011;59072;42.144;25.200;2023-04-03T10:47:57;10.95;;;5.28;;
71148;SDS011;59072;42.144;25.200;2023-04-03T10:51:19;11.82;;;5.78;;
71148;SDS011;59072;42.144;25.200;2023-04-03T10:53:39;14.55;;;6.78;;
71148;SDS011;59072;42.144;25.200;2023-04-03T10:58:40;13.77;;;7.57;;
71148;SDS011;59072;42.144;25.200;2023-04-03T11:01:09;12.98;;;5.85;;
71148;SDS011;59072;42.144;25.200;2023-04-03T11:03:40;11.30;;;5.00;;
71148;SDS011;59072;42.144;25.200;2023-04-03T11:06:13;19.92;;;7.85;;
71148;SDS011;59072;42.144;25.200;2023-04-03T11:08:55;12.25;;;5.97;;
71148;SDS011;59072;42.144;25.200;2023-04-03T11:11:27;15.35;;;8.68;;
71148;SDS011;59072;42.144;25.200;2023-04-03T11:14:01;12.93;;;5.22;;
71148;SDS011;59072;42.144;25.200;2023-04-03T11:16:35;16.23;;;8.63;;
71148;SDS011;59072;42.144;25.200;2023-04-03T11:19:24;8.68;;;4.82;;
71148;SDS011;59072;42.144;25.200;2023-04-03T11:22:14;10.90;;;5.63;;
71148;SDS011;59072;42.144;25.200;2023-04-03T11:24:51;14.25;;;9.15;;
71148;SDS011;59072;42.144;25.200;2023-04-03T11:27:46;10.02;;;4.80;;
71148;SDS011;59072;42.144;25.200;2023-04-03T11:30:20;11.50;;;6.22;;
71148;SDS011;59072;42.144;25.200;2023-04-03T11:32:58;14.75;;;9.35;;
71148;SDS011;59072;42.144;25.200;2023-04-03T11:35:27;21.20;;;12.52;;
71148;SDS011;59072;42.144;25.200;2023-04-03T11:37:53;14.20;;;5.22;;
71148;SDS011;59072;42.144;25.200;2023-04-03T11:40:31;11.00;;;5.25;;
71148;SDS011;59072;42.144;25.200;2023-04-03T11:45:29;17.38;;;7.93;;
71148;SDS011;59072;42.144;25.200;2023-04-03T11:48:06;13.38;;;5.40;;
71148;SDS011;59072;42.144;25.200;2023-04-03T11:50:53;10.55;;;4.95;;
71148;SDS011;59072;42.144;25.200;2023-04-03T11:53:36;12.13;;;6.13;;
71148;SDS011;59072;42.144;25.200;2023-04-03T12:01:57;16.13;;;10.63;;
71148;SDS011;59072;42.144;25.200;2023-04-03T12:04:26;38.92;;;24.40;;
71148;SDS011;59072;42.144;25.200;2023-04-03T12:06:53;12.13;;;6.43;;
71148;SDS011;59072;42.144;25.200;2023-04-03T12:11:56;9.98;;;5.90;;
71148;SDS011;59072;42.144;25.200;2023-04-03T12:14:24;26.83;;;14.43;;
71148;SDS011;59072;42.144;25.200;2023-04-03T12:16:50;12.52;;;6.88;;
71148;SDS011;59072;42.144;25.200;2023-04-03T12:24:32;35.15;;;22.65;;
71148;SDS011;59072;42.144;25.200;2023-04-03T12:32:34;17.52;;;10.65;;
71148;SDS011;59072;42.144;25.200;2023-04-03T12:35:29;17.63;;;7.85;;
71148;SDS011;59072;42.144;25.200;2023-04-03T12:40:51;18.88;;;10.35;;
71148;SDS011;59072;42.144;25.200;2023-04-03T12:46:03;29.08;;;16.23;;
71148;SDS011;59072;42.144;25.200;2023-04-03T12:48:39;15.85;;;8.25;;
71148;SDS011;59072;42.144;25.200;2023-04-03T12:51:15;29.23;;;17.92;;
71148;SDS011;59072;42.144;25.200;2023-04-03T12:54:00;25.90;;;16.05;;
71148;SDS011;59072;42.144;25.200;2023-04-03T12:56:31;21.13;;;12.32;;
71148;SDS011;59072;42.144;25.200;2023-04-03T13:01:59;19.05;;;11.40;;
71148;SDS011;59072;42.144;25.200;2023-04-03T13:04:26;21.98;;;12.40;;
71148;SDS011;59072;42.144;25.200;2023-04-03T13:06:53;19.75;;;9.32;;
71148;SDS011;59072;42.144;25.200;2023-04-03T13:09:26;21.08;;;11.40;;
71148;SDS011;59072;42.144;25.200;2023-04-03T13:14:23;35.53;;;16.95;;
71148;SDS011;59072;42.144;25.200;2023-04-03T13:21:59;28.70;;;14.30;;
71148;SDS011;59072;42.144;25.200;2023-04-03T13:27:19;18.55;;;9.45;;
71148;SDS011;59072;42.144;25.200;2023-04-03T13:29:49;17.60;;;9.32;;
71148;SDS011;59072;42.144;25.200;2023-04-03T13:32:18;33.30;;;18.50;;
71148;SDS011;59072;42.144;25.200;2023-04-03T13:34:46;18.98;;;8.48;;
71148;SDS011;59072;42.144;25.200;2023-04-03T13:42:33;15.43;;;8.73;;
71148;SDS011;59072;42.144;25.200;2023-04-03T13:45:25;15.43;;;6.30;;
71148;SDS011;59072;42.144;25.200;2023-04-03T13:50:50;13.43;;;7.18;;
71148;SDS011;59072;42.144;25.200;2023-04-03T13:53:16;13.23;;;6.88;;
71148;SDS011;59072;42.144;25.200;2023-04-03T13:55:53;15.00;;;7.93;;
71148;SDS011;59072;42.144;25.200;2023-04-03T14:01:42;21.33;;;10.50;;
71148;SDS011;59072;42.144;25.200;2023-04-03T14:04:26;18.95;;;9.73;;
71148;SDS011;59072;42.144;25.200;2023-04-03T14:06:53;20.92;;;11.82;;
71148;SDS011;59072;42.144;25.200;2023-04-03T14:09:19;16.25;;;10.15;;
71148;SDS011;59072;42.144;25.200;2023-04-03T14:11:46;16.87;;;7.90;;
71148;SDS011;59072;42.144;25.200;2023-04-03T14:14:15;13.85;;;6.97;;
71148;SDS011;59072;42.144;25.200;2023-04-03T14:16:45;12.70;;;7.15;;
71148;SDS011;59072;42.144;25.200;2023-04-03T14:19:18;63.45;;;50.53;;
71148;SDS011;59072;42.144;25.200;2023-04-03T14:21:49;374.30;;;246.38;;
71148;SDS011;59072;42.144;25.200;2023-04-03T14:24:16;177.98;;;117.93;;
71148;SDS011;59072;42.144;25.200;2023-04-03T14:26:42;217.60;;;139.38;;
71148;SDS011;59072;42.144;25.200;2023-04-03T14:29:09;125.97;;;107.18;;
71148;SDS011;59072;42.144;25.200;2023-04-03T14:31:36;43.58;;;37.97;;
71148;SDS011;59072;42.144;25.200;2023-04-03T14:34:01;79.82;;;71.40;;
71148;SDS011;59072;42.144;25.200;2023-04-03T14:36:27;37.70;;;33.45;;
71148;SDS011;59072;42.144;25.200;2023-04-03T14:38:54;23.20;;;20.23;;
71148;SDS011;59072;42.144;25.200;2023-04-03T14:41:21;24.48;;;19.25;;
71148;SDS011;59072;42.144;25.200;2023-04-03T14:43:49;14.95;;;10.23;;
71148;SDS011;59072;42.144;25.200;2023-04-03T14:46:19;19.27;;;10.27;;
71148;SDS011;59072;42.144;25.200;2023-04-03T14:49:14;21.10;;;13.63;;
71148;SDS011;59072;42.144;25.200;2023-04-03T14:51:40;21.27;;;13.55;;
71148;SDS011;59072;42.144;25.200;2023-04-03T14:54:10;27.45;;;21.98;;
71148;SDS011;59072;42.144;25.200;2023-04-03T14:56:38;38.50;;;34.88;;
71148;SDS011;59072;42.144;25.200;2023-04-03T14:59:04;34.58;;;29.35;;
71148;SDS011;59072;42.144;25.200;2023-04-03T15:01:34;36.88;;;32.85;;
71148;SDS011;59072;42.144;25.200;2023-04-03T15:04:00;49.45;;;44.10;;
71148;SDS011;59072;42.144;25.200;2023-04-03T15:06:25;24.25;;;19.55;;
71148;SDS011;59072;42.144;25.200;2023-04-03T15:08:51;21.75;;;14.88;;
71148;SDS011;59072;42.144;25.200;2023-04-03T15:11:16;16.20;;;10.32;;
71148;SDS011;59072;42.144;25.200;2023-04-03T15:13:42;25.75;;;13.77;;
71148;SDS011;59072;42.144;25.200;2023-04-03T15:16:12;65.38;;;31.67;;
71148;SDS011;59072;42.144;25.200;2023-04-03T15:18:43;43.00;;;21.02;;
71148;SDS011;59072;42.144;25.200;2023-04-03T15:21:09;19.45;;;11.18;;
71148;SDS011;59072;42.144;25.200;2023-04-03T15:23:35;22.90;;;12.68;;
71148;SDS011;59072;42.144;25.200;2023-04-03T15:26:00;41.80;;;30.17;;
71148;SDS011;59072;42.144;25.200;2023-04-03T15:28:33;36.10;;;32.55;;
71148;SDS011;59072;42.144;25.200;2023-04-03T15:31:02;22.23;;;13.40;;
71148;SDS011;59072;42.144;25.200;2023-04-03T15:33:29;22.00;;;13.30;;
71148;SDS011;59072;42.144;25.200;2023-04-03T15:35:55;62.15;;;33.72;;
71148;SDS011;59072;42.144;25.200;2023-04-03T15:38:21;24.92;;;12.70;;
71148;SDS011;59072;42.144;25.200;2023-04-03T15:40:47;55.00;;;28.75;;
71148;SDS011;59072;42.144;25.200;2023-04-03T15:43:12;105.88;;;50.05;;
71148;SDS011;59072;42.144;25.200;2023-04-03T15:45:39;72.60;;;36.47;;
71148;SDS011;59072;42.144;25.200;2023-04-03T15:48:05;68.38;;;37.38;;
71148;SDS011;59072;42.144;25.200;2023-04-03T15:50:31;28.20;;;17.35;;
71148;SDS011;59072;42.144;25.200;2023-04-03T15:52:58;35.05;;;17.15;;
71148;SDS011;59072;42.144;25.200;2023-04-03T15:55:24;50.67;;;25.00;;
71148;SDS011;59072;42.144;25.200;2023-04-03T15:57:50;37.47;;;18.90;;
71148;SDS011;59072;42.144;25.200;2023-04-03T16:00:16;28.65;;;15.68;;
71148;SDS011;59072;42.144;25.200;2023-04-03T16:02:42;56.42;;;28.25;;
71148;SDS011;59072;42.144;25.200;2023-04-03T16:05:10;41.33;;;24.52;;
71148;SDS011;59072;42.144;25.200;2023-04-03T16:07:37;23.60;;;14.07;;
71148;SDS011;59072;42.144;25.200;2023-04-03T16:10:05;21.33;;;11.15;;
71148;SDS011;59072;42.144;25.200;2023-04-03T16:12:32;20.85;;;12.20;;